sensor_id;sensor_type;location;lat;lon;timestamp;P1;durP1;ratioP1;P2;durP2;ratioP2
78778;SDS011;68121;52.404;5.318;2023-07-08T00:00:12;5.55;;;2.75;;
78778;SDS011;68121;52.404;5.318;2023-07-08T00:02:41;4.55;;;2.40;;
78778;SDS011;68121;52.404;5.318;2023-07-08T00:05:11;5.50;;;2.67;;
78778;SDS011;68121;52.404;5.318;2023-07-08T00:07:39;3.40;;;2.35;;
78778;SDS011;68121;52.404;5.318;2023-07-08T00:10:16;3.83;;;2.33;;
78778;SDS011;68121;52.404;5.318;2023-07-08T00:12:45;6.78;;;3.17;;
78778;SDS011;68121;52.404;5.318;2023-07-08T00:15:13;6.18;;;2.78;;
78778;SDS011;68121;52.404;5.318;2023-07-08T00:17:39;7.93;;;2.80;;
78778;SDS011;68121;52.404;5.318;2023-07-08T00:23:03;4.68;;;2.60;;
78778;SDS011;68121;52.404;5.318;2023-07-08T00:25:48;4.05;;;2.85;;
78778;SDS011;68121;52.404;5.318;2023-07-08T00:28:57;5.32;;;2.55;;
78778;SDS011;68121;52.404;5.318;2023-07-08T00:31:26;5.78;;;2.75;;
78778;SDS011;68121;52.404;5.318;2023-07-08T00:33:52;5.55;;;2.85;;
78778;SDS011;68121;52.404;5.318;2023-07-08T00:36:23;8.35;;;3.30;;
78778;SDS011;68121;52.404;5.318;2023-07-08T00:38:51;7.55;;;3.30;;
78778;SDS011;68121;52.404;5.318;2023-07-08T00:43:58;6.65;;;3.40;;
78778;SDS011;68121;52.404;5.318;2023-07-08T00:51:36;4.90;;;2.60;;
78778;SDS011;68121;52.404;5.318;2023-07-08T00:54:14;8.15;;;3.17;;
78778;SDS011;68121;52.404;5.318;2023-07-08T00:56:58;4.45;;;2.95;;
78778;SDS011;68121;52.404;5.318;2023-07-08T00:59:32;5.22;;;2.70;;
78778;SDS011;68121;52.404;5.318;2023-07-08T01:02:03;5.40;;;2.30;;
78778;SDS011;68121;52.404;5.318;2023-07-08T01:04:32;5.30;;;2.75;;
78778;SDS011;68121;52.404;5.318;2023-07-08T01:07:04;5.32;;;2.70;;
78778;SDS011;68121;52.404;5.318;2023-07-08T01:09:34;4.25;;;2.83;;
78778;SDS011;68121;52.404;5.318;2023-07-08T01:12:04;5.00;;;2.97;;
78778;SDS011;68121;52.404;5.318;2023-07-08T01:14:34;5.70;;;2.97;;
78778;SDS011;68121;52.404;5.318;2023-07-08T01:17:03;6.30;;;3.22;;
78778;SDS011;68121;52.404;5.318;2023-07-08T01:19:29;6.20;;;3.20;;
78778;SDS011;68121;52.404;5.318;2023-07-08T01:22:03;5.78;;;2.58;;
78778;SDS011;68121;52.404;5.318;2023-07-08T01:24:30;5.25;;;3.08;;
78778;SDS011;68121;52.404;5.318;2023-07-08T01:27:00;4.55;;;2.60;;
78778;SDS011;68121;52.404;5.318;2023-07-08T01:29:28;4.65;;;2.80;;
78778;SDS011;68121;52.404;5.318;2023-07-08T01:31:55;5.00;;;2.85;;
78778;SDS011;68121;52.404;5.318;2023-07-08T01:34:22;7.07;;;3.25;;
78778;SDS011;68121;52.404;5.318;2023-07-08T01:36:50;4.75;;;3.00;;
78778;SDS011;68121;52.404;5.318;2023-07-08T01:39:19;9.00;;;2.75;;
78778;SDS011;68121;52.404;5.318;2023-07-08T01:41:47;5.00;;;2.78;;
78778;SDS011;68121;52.404;5.318;2023-07-08T01:44:33;5.15;;;2.83;;
78778;SDS011;68121;52.404;5.318;2023-07-08T01:47:08;5.30;;;2.42;;
78778;SDS011;68121;52.404;5.318;2023-07-08T01:49:39;5.75;;;3.20;;
78778;SDS011;68121;52.404;5.318;2023-07-08T01:52:08;4.07;;;2.88;;
78778;SDS011;68121;52.404;5.318;2023-07-08T01:54:35;5.50;;;3.47;;
78778;SDS011;68121;52.404;5.318;2023-07-08T01:57:01;6.07;;;4.00;;
78778;SDS011;68121;52.404;5.318;2023-07-08T01:59:28;5.03;;;2.72;;
78778;SDS011;68121;52.404;5.318;2023-07-08T02:01:55;6.00;;;2.85;;
78778;SDS011;68121;52.404;5.318;2023-07-08T02:04:24;4.88;;;2.80;;
78778;SDS011;68121;52.404;5.318;2023-07-08T02:06:55;4.43;;;3.05;;
78778;SDS011;68121;52.404;5.318;2023-07-08T02:09:23;5.68;;;3.05;;
78778;SDS011;68121;52.404;5.318;2023-07-08T02:11:50;4.03;;;2.95;;
78778;SDS011;68121;52.404;5.318;2023-07-08T02:14:20;7.30;;;3.17;;
78778;SDS011;68121;52.404;5.318;2023-07-08T02:16:48;5.93;;;2.90;;
78778;SDS011;68121;52.404;5.318;2023-07-08T02:19:14;4.25;;;2.75;;
78778;SDS011;68121;52.404;5.318;2023-07-08T02:21:40;6.53;;;3.15;;
78778;SDS011;68121;52.404;5.318;2023-07-08T02:24:07;4.30;;;2.40;;
78778;SDS011;68121;52.404;5.318;2023-07-08T02:26:33;4.80;;;2.58;;
78778;SDS011;68121;52.404;5.318;2023-07-08T02:28:59;5.38;;;3.22;;
78778;SDS011;68121;52.404;5.318;2023-07-08T02:31:26;4.43;;;2.95;;
78778;SDS011;68121;52.404;5.318;2023-07-08T02:33:53;6.13;;;3.30;;
78778;SDS011;68121;52.404;5.318;2023-07-08T02:36:20;4.15;;;2.45;;
78778;SDS011;68121;52.404;5.318;2023-07-08T02:38:46;3.95;;;2.78;;
78778;SDS011;68121;52.404;5.318;2023-07-08T02:41:12;6.47;;;3.42;;
78778;SDS011;68121;52.404;5.318;2023-07-08T02:43:38;7.57;;;3.15;;
78778;SDS011;68121;52.404;5.318;2023-07-08T02:46:04;4.53;;;3.33;;
78778;SDS011;68121;52.404;5.318;2023-07-08T02:48:31;6.38;;;3.20;;
78778;SDS011;68121;52.404;5.318;2023-07-08T02:51:00;5.57;;;2.95;;
78778;SDS011;68121;52.404;5.318;2023-07-08T02:53:30;5.63;;;2.95;;
78778;SDS011;68121;52.404;5.318;2023-07-08T02:55:57;5.25;;;3.05;;
78778;SDS011;68121;52.404;5.318;2023-07-08T02:58:24;5.50;;;3.00;;
78778;SDS011;68121;52.404;5.318;2023-07-08T03:00:53;5.32;;;3.20;;
78778;SDS011;68121;52.404;5.318;2023-07-08T03:03:21;5.93;;;3.28;;
78778;SDS011;68121;52.404;5.318;2023-07-08T03:05:58;9.77;;;3.58;;
78778;SDS011;68121;52.404;5.318;2023-07-08T03:08:26;6.03;;;2.88;;
78778;SDS011;68121;52.404;5.318;2023-07-08T03:10:57;4.65;;;3.05;;
78778;SDS011;68121;52.404;5.318;2023-07-08T03:13:26;3.80;;;2.92;;
78778;SDS011;68121;52.404;5.318;2023-07-08T03:15:53;5.53;;;3.33;;
78778;SDS011;68121;52.404;5.318;2023-07-08T03:18:20;5.00;;;3.42;;
78778;SDS011;68121;52.404;5.318;2023-07-08T03:20:49;8.60;;;2.95;;
78778;SDS011;68121;52.404;5.318;2023-07-08T03:23:15;4.70;;;2.65;;
78778;SDS011;68121;52.404;5.318;2023-07-08T03:25:41;6.13;;;3.40;;
78778;SDS011;68121;52.404;5.318;2023-07-08T03:28:08;6.93;;;4.30;;
78778;SDS011;68121;52.404;5.318;2023-07-08T03:30:40;5.70;;;2.97;;
78778;SDS011;68121;52.404;5.318;2023-07-08T03:33:07;6.55;;;3.25;;
78778;SDS011;68121;52.404;5.318;2023-07-08T03:35:34;5.82;;;3.30;;
78778;SDS011;68121;52.404;5.318;2023-07-08T03:38:00;6.40;;;3.40;;
78778;SDS011;68121;52.404;5.318;2023-07-08T03:40:27;4.53;;;3.10;;
78778;SDS011;68121;52.404;5.318;2023-07-08T03:42:53;7.07;;;3.30;;
78778;SDS011;68121;52.404;5.318;2023-07-08T03:45:19;11.10;;;3.35;;
78778;SDS011;68121;52.404;5.318;2023-07-08T03:47:45;6.68;;;3.55;;
78778;SDS011;68121;52.404;5.318;2023-07-08T03:50:17;6.55;;;3.25;;
78778;SDS011;68121;52.404;5.318;2023-07-08T03:52:48;9.05;;;3.25;;
78778;SDS011;68121;52.404;5.318;2023-07-08T03:55:15;4.28;;;3.15;;
78778;SDS011;68121;52.404;5.318;2023-07-08T03:57:41;5.82;;;3.65;;
78778;SDS011;68121;52.404;5.318;2023-07-08T04:00:08;6.65;;;3.45;;
78778;SDS011;68121;52.404;5.318;2023-07-08T04:02:35;4.88;;;3.33;;
78778;SDS011;68121;52.404;5.318;2023-07-08T04:05:02;5.78;;;3.22;;
78778;SDS011;68121;52.404;5.318;2023-07-08T04:07:29;6.95;;;3.38;;
78778;SDS011;68121;52.404;5.318;2023-07-08T04:09:55;7.70;;;3.83;;
78778;SDS011;68121;52.404;5.318;2023-07-08T04:12:21;7.85;;;3.40;;
78778;SDS011;68121;52.404;5.318;2023-07-08T04:14:47;6.13;;;3.80;;
78778;SDS011;68121;52.404;5.318;2023-07-08T04:17:13;4.30;;;3.35;;
78778;SDS011;68121;52.404;5.318;2023-07-08T04:19:41;7.75;;;3.17;;
78778;SDS011;68121;52.404;5.318;2023-07-08T04:22:09;6.20;;;3.67;;
78778;SDS011;68121;52.404;5.318;2023-07-08T04:24:36;5.32;;;3.35;;
78778;SDS011;68121;52.404;5.318;2023-07-08T04:27:02;4.15;;;3.05;;
78778;SDS011;68121;52.404;5.318;2023-07-08T04:29:29;4.28;;;3.45;;
78778;SDS011;68121;52.404;5.318;2023-07-08T04:31:55;4.90;;;3.30;;
78778;SDS011;68121;52.404;5.318;2023-07-08T04:34:21;5.80;;;3.35;;
78778;SDS011;68121;52.404;5.318;2023-07-08T04:36:47;7.05;;;3.10;;
78778;SDS011;68121;52.404;5.318;2023-07-08T04:39:13;5.07;;;3.03;;
78778;SDS011;68121;52.404;5.318;2023-07-08T04:41:40;8.32;;;3.22;;
78778;SDS011;68121;52.404;5.318;2023-07-08T04:44:07;7.15;;;3.92;;
78778;SDS011;68121;52.404;5.318;2023-07-08T04:46:38;8.90;;;4.03;;
78778;SDS011;68121;52.404;5.318;2023-07-08T04:49:08;5.05;;;2.75;;
78778;SDS011;68121;52.404;5.318;2023-07-08T04:51:39;4.57;;;2.95;;
78778;SDS011;68121;52.404;5.318;2023-07-08T04:54:06;5.90;;;3.53;;
78778;SDS011;68121;52.404;5.318;2023-07-08T04:56:37;7.70;;;3.50;;
78778;SDS011;68121;52.404;5.318;2023-07-08T04:59:05;5.55;;;3.03;;
78778;SDS011;68121;52.404;5.318;2023-07-08T05:01:33;5.78;;;3.35;;
78778;SDS011;68121;52.404;5.318;2023-07-08T05:03:59;6.05;;;3.58;;
78778;SDS011;68121;52.404;5.318;2023-07-08T05:06:25;5.43;;;3.15;;
78778;SDS011;68121;52.404;5.318;2023-07-08T05:08:52;6.15;;;3.35;;
78778;SDS011;68121;52.404;5.318;2023-07-08T05:11:18;5.03;;;3.15;;
78778;SDS011;68121;52.404;5.318;2023-07-08T05:13:45;5.97;;;3.05;;
78778;SDS011;68121;52.404;5.318;2023-07-08T05:16:11;7.35;;;3.58;;
78778;SDS011;68121;52.404;5.318;2023-07-08T05:18:37;5.88;;;2.95;;
78778;SDS011;68121;52.404;5.318;2023-07-08T05:21:03;5.70;;;3.45;;
78778;SDS011;68121;52.404;5.318;2023-07-08T05:23:30;4.95;;;3.25;;
78778;SDS011;68121;52.404;5.318;2023-07-08T05:25:59;9.27;;;3.80;;
78778;SDS011;68121;52.404;5.318;2023-07-08T05:28:26;6.43;;;3.95;;
78778;SDS011;68121;52.404;5.318;2023-07-08T05:30:53;4.32;;;3.30;;
78778;SDS011;68121;52.404;5.318;2023-07-08T05:33:22;4.47;;;3.30;;
78778;SDS011;68121;52.404;5.318;2023-07-08T05:35:49;6.55;;;4.22;;
78778;SDS011;68121;52.404;5.318;2023-07-08T05:38:16;6.53;;;3.40;;
78778;SDS011;68121;52.404;5.318;2023-07-08T05:40:42;6.00;;;3.40;;
78778;SDS011;68121;52.404;5.318;2023-07-08T05:43:08;5.45;;;3.20;;
78778;SDS011;68121;52.404;5.318;2023-07-08T05:45:35;6.07;;;3.30;;
78778;SDS011;68121;52.404;5.318;2023-07-08T05:48:01;5.00;;;2.60;;
78778;SDS011;68121;52.404;5.318;2023-07-08T05:50:27;4.97;;;3.22;;
78778;SDS011;68121;52.404;5.318;2023-07-08T05:52:54;4.47;;;3.10;;
78778;SDS011;68121;52.404;5.318;2023-07-08T05:55:20;6.25;;;3.50;;
78778;SDS011;68121;52.404;5.318;2023-07-08T05:57:46;8.00;;;3.35;;
78778;SDS011;68121;52.404;5.318;2023-07-08T06:00:12;5.15;;;2.90;;
78778;SDS011;68121;52.404;5.318;2023-07-08T06:02:38;4.32;;;2.75;;
78778;SDS011;68121;52.404;5.318;2023-07-08T06:05:04;5.82;;;2.85;;
78778;SDS011;68121;52.404;5.318;2023-07-08T06:07:31;5.13;;;3.30;;
78778;SDS011;68121;52.404;5.318;2023-07-08T06:09:57;5.10;;;3.03;;
78778;SDS011;68121;52.404;5.318;2023-07-08T06:12:24;6.80;;;3.15;;
78778;SDS011;68121;52.404;5.318;2023-07-08T06:14:51;4.43;;;3.03;;
78778;SDS011;68121;52.404;5.318;2023-07-08T06:17:17;8.93;;;3.15;;
78778;SDS011;68121;52.404;5.318;2023-07-08T06:19:43;6.03;;;2.97;;
78778;SDS011;68121;52.404;5.318;2023-07-08T06:22:10;4.03;;;2.67;;
78778;SDS011;68121;52.404;5.318;2023-07-08T06:24:36;5.13;;;2.97;;
78778;SDS011;68121;52.404;5.318;2023-07-08T06:27:02;4.63;;;3.33;;
78778;SDS011;68121;52.404;5.318;2023-07-08T06:29:28;5.43;;;3.42;;
78778;SDS011;68121;52.404;5.318;2023-07-08T06:31:54;4.50;;;2.90;;
78778;SDS011;68121;52.404;5.318;2023-07-08T06:34:20;4.20;;;3.03;;
78778;SDS011;68121;52.404;5.318;2023-07-08T06:36:48;4.07;;;2.75;;
78778;SDS011;68121;52.404;5.318;2023-07-08T06:39:15;4.72;;;2.75;;
78778;SDS011;68121;52.404;5.318;2023-07-08T06:41:42;4.97;;;2.55;;
78778;SDS011;68121;52.404;5.318;2023-07-08T06:44:08;6.32;;;2.90;;
78778;SDS011;68121;52.404;5.318;2023-07-08T06:46:34;5.82;;;2.85;;
78778;SDS011;68121;52.404;5.318;2023-07-08T06:49:00;5.90;;;2.83;;
78778;SDS011;68121;52.404;5.318;2023-07-08T06:51:27;5.53;;;2.90;;
78778;SDS011;68121;52.404;5.318;2023-07-08T06:53:53;4.38;;;2.40;;
78778;SDS011;68121;52.404;5.318;2023-07-08T06:56:20;4.93;;;2.88;;
78778;SDS011;68121;52.404;5.318;2023-07-08T06:58:46;5.70;;;3.30;;
78778;SDS011;68121;52.404;5.318;2023-07-08T07:01:12;7.07;;;2.88;;
78778;SDS011;68121;52.404;5.318;2023-07-08T07:03:39;7.50;;;2.97;;
78778;SDS011;68121;52.404;5.318;2023-07-08T07:06:06;3.80;;;2.63;;
78778;SDS011;68121;52.404;5.318;2023-07-08T07:08:32;5.90;;;2.72;;
78778;SDS011;68121;52.404;5.318;2023-07-08T07:10:58;4.57;;;2.70;;
78778;SDS011;68121;52.404;5.318;2023-07-08T07:13:24;5.05;;;3.08;;
78778;SDS011;68121;52.404;5.318;2023-07-08T07:15:50;5.10;;;3.05;;
78778;SDS011;68121;52.404;5.318;2023-07-08T07:18:16;4.82;;;2.85;;
78778;SDS011;68121;52.404;5.318;2023-07-08T07:20:49;4.78;;;2.72;;
78778;SDS011;68121;52.404;5.318;2023-07-08T07:23:16;4.82;;;2.80;;
78778;SDS011;68121;52.404;5.318;2023-07-08T07:25:43;4.47;;;2.78;;
78778;SDS011;68121;52.404;5.318;2023-07-08T07:28:13;5.32;;;2.67;;
78778;SDS011;68121;52.404;5.318;2023-07-08T07:30:42;5.15;;;2.58;;
78778;SDS011;68121;52.404;5.318;2023-07-08T07:33:09;3.70;;;2.90;;
78778;SDS011;68121;52.404;5.318;2023-07-08T07:35:41;5.70;;;3.20;;
78778;SDS011;68121;52.404;5.318;2023-07-08T07:38:10;6.65;;;3.45;;
78778;SDS011;68121;52.404;5.318;2023-07-08T07:40:36;5.28;;;2.92;;
78778;SDS011;68121;52.404;5.318;2023-07-08T07:43:04;4.55;;;2.95;;
78778;SDS011;68121;52.404;5.318;2023-07-08T07:45:30;5.40;;;2.50;;
78778;SDS011;68121;52.404;5.318;2023-07-08T07:47:56;4.50;;;2.72;;
78778;SDS011;68121;52.404;5.318;2023-07-08T07:50:22;3.92;;;2.72;;
78778;SDS011;68121;52.404;5.318;2023-07-08T07:52:49;7.25;;;2.63;;
78778;SDS011;68121;52.404;5.318;2023-07-08T07:55:15;4.07;;;2.50;;
78778;SDS011;68121;52.404;5.318;2023-07-08T07:57:41;4.55;;;2.63;;
78778;SDS011;68121;52.404;5.318;2023-07-08T08:00:07;3.75;;;2.53;;
78778;SDS011;68121;52.404;5.318;2023-07-08T08:02:34;4.43;;;3.00;;
78778;SDS011;68121;52.404;5.318;2023-07-08T08:05:00;3.05;;;2.25;;
78778;SDS011;68121;52.404;5.318;2023-07-08T08:07:27;4.32;;;2.72;;
78778;SDS011;68121;52.404;5.318;2023-07-08T08:09:54;4.70;;;2.53;;
78778;SDS011;68121;52.404;5.318;2023-07-08T08:12:20;4.28;;;2.47;;
78778;SDS011;68121;52.404;5.318;2023-07-08T08:14:50;4.60;;;2.67;;
78778;SDS011;68121;52.404;5.318;2023-07-08T08:17:17;3.80;;;2.20;;
78778;SDS011;68121;52.404;5.318;2023-07-08T08:19:43;2.60;;;2.30;;
78778;SDS011;68121;52.404;5.318;2023-07-08T08:22:09;4.57;;;2.65;;
78778;SDS011;68121;52.404;5.318;2023-07-08T08:24:35;4.03;;;2.80;;
78778;SDS011;68121;52.404;5.318;2023-07-08T08:27:01;4.05;;;2.53;;
78778;SDS011;68121;52.404;5.318;2023-07-08T08:29:27;5.10;;;2.85;;
78778;SDS011;68121;52.404;5.318;2023-07-08T08:31:53;5.70;;;2.53;;
78778;SDS011;68121;52.404;5.318;2023-07-08T08:34:20;4.63;;;2.67;;
78778;SDS011;68121;52.404;5.318;2023-07-08T08:36:46;4.22;;;2.22;;
78778;SDS011;68121;52.404;5.318;2023-07-08T08:39:12;5.32;;;2.30;;
78778;SDS011;68121;52.404;5.318;2023-07-08T08:41:40;4.53;;;2.17;;
78778;SDS011;68121;52.404;5.318;2023-07-08T08:44:10;4.65;;;2.70;;
78778;SDS011;68121;52.404;5.318;2023-07-08T08:46:41;3.00;;;2.40;;
78778;SDS011;68121;52.404;5.318;2023-07-08T08:49:26;3.22;;;2.20;;
78778;SDS011;68121;52.404;5.318;2023-07-08T08:51:56;3.45;;;2.28;;
78778;SDS011;68121;52.404;5.318;2023-07-08T08:54:24;7.47;;;2.13;;
78778;SDS011;68121;52.404;5.318;2023-07-08T08:59:45;3.40;;;2.72;;
78778;SDS011;68121;52.404;5.318;2023-07-08T09:02:39;3.63;;;2.70;;
78778;SDS011;68121;52.404;5.318;2023-07-08T09:05:08;6.47;;;2.67;;
78778;SDS011;68121;52.404;5.318;2023-07-08T09:07:39;4.00;;;2.33;;
78778;SDS011;68121;52.404;5.318;2023-07-08T09:10:09;4.05;;;2.78;;
78778;SDS011;68121;52.404;5.318;2023-07-08T09:12:58;4.65;;;2.65;;
78778;SDS011;68121;52.404;5.318;2023-07-08T09:15:29;5.93;;;3.08;;
78778;SDS011;68121;52.404;5.318;2023-07-08T09:17:57;4.07;;;2.53;;
78778;SDS011;68121;52.404;5.318;2023-07-08T09:20:37;4.20;;;2.60;;
78778;SDS011;68121;52.404;5.318;2023-07-08T09:23:08;3.47;;;2.30;;
78778;SDS011;68121;52.404;5.318;2023-07-08T09:25:54;7.07;;;3.03;;
78778;SDS011;68121;52.404;5.318;2023-07-08T09:31:05;5.95;;;2.90;;
78778;SDS011;68121;52.404;5.318;2023-07-08T09:33:33;6.35;;;2.95;;
78778;SDS011;68121;52.404;5.318;2023-07-08T09:36:04;4.63;;;3.10;;
78778;SDS011;68121;52.404;5.318;2023-07-08T09:38:47;6.88;;;2.80;;
78778;SDS011;68121;52.404;5.318;2023-07-08T09:41:28;4.80;;;2.85;;
78778;SDS011;68121;52.404;5.318;2023-07-08T09:44:29;5.35;;;2.80;;
78778;SDS011;68121;52.404;5.318;2023-07-08T09:46:55;4.45;;;2.80;;
78778;SDS011;68121;52.404;5.318;2023-07-08T09:52:00;4.43;;;2.58;;
78778;SDS011;68121;52.404;5.318;2023-07-08T09:54:27;4.43;;;3.10;;
78778;SDS011;68121;52.404;5.318;2023-07-08T09:56:55;4.70;;;2.83;;
78778;SDS011;68121;52.404;5.318;2023-07-08T10:00:02;6.05;;;2.80;;
78778;SDS011;68121;52.404;5.318;2023-07-08T10:07:40;5.05;;;2.60;;
78778;SDS011;68121;52.404;5.318;2023-07-08T10:10:08;5.32;;;3.13;;
78778;SDS011;68121;52.404;5.318;2023-07-08T10:12:40;4.20;;;2.70;;
78778;SDS011;68121;52.404;5.318;2023-07-08T10:18:04;6.90;;;3.13;;
78778;SDS011;68121;52.404;5.318;2023-07-08T10:20:54;5.05;;;3.15;;
78778;SDS011;68121;52.404;5.318;2023-07-08T10:23:41;3.35;;;2.42;;
78778;SDS011;68121;52.404;5.318;2023-07-08T10:28:54;6.35;;;3.25;;
78778;SDS011;68121;52.404;5.318;2023-07-08T10:31:30;4.82;;;3.00;;
78778;SDS011;68121;52.404;5.318;2023-07-08T10:36:55;4.40;;;3.30;;
78778;SDS011;68121;52.404;5.318;2023-07-08T10:39:43;6.85;;;3.55;;
78778;SDS011;68121;52.404;5.318;2023-07-08T10:42:38;5.65;;;3.60;;
78778;SDS011;68121;52.404;5.318;2023-07-08T10:45:34;4.88;;;3.65;;
78778;SDS011;68121;52.404;5.318;2023-07-08T10:56:47;5.50;;;3.40;;
78778;SDS011;68121;52.404;5.318;2023-07-08T10:59:28;6.78;;;3.15;;
78778;SDS011;68121;52.404;5.318;2023-07-08T11:02:24;4.18;;;2.90;;
78778;SDS011;68121;52.404;5.318;2023-07-08T11:05:22;5.47;;;3.20;;
78778;SDS011;68121;52.404;5.318;2023-07-08T11:08:29;5.70;;;4.35;;
78778;SDS011;68121;52.404;5.318;2023-07-08T11:13:25;6.60;;;3.45;;
78778;SDS011;68121;52.404;5.318;2023-07-08T11:15:56;6.25;;;3.75;;
78778;SDS011;68121;52.404;5.318;2023-07-08T11:18:45;5.13;;;3.80;;
78778;SDS011;68121;52.404;5.318;2023-07-08T11:21:37;6.75;;;3.47;;
78778;SDS011;68121;52.404;5.318;2023-07-08T11:26:58;5.78;;;3.80;;
78778;SDS011;68121;52.404;5.318;2023-07-08T11:29:45;8.65;;;3.75;;
78778;SDS011;68121;52.404;5.318;2023-07-08T11:32:16;8.40;;;4.03;;
78778;SDS011;68121;52.404;5.318;2023-07-08T11:34:46;6.45;;;3.60;;
78778;SDS011;68121;52.404;5.318;2023-07-08T11:37:15;6.72;;;3.42;;
78778;SDS011;68121;52.404;5.318;2023-07-08T11:39:44;6.40;;;3.90;;
78778;SDS011;68121;52.404;5.318;2023-07-08T11:42:22;5.95;;;3.53;;
78778;SDS011;68121;52.404;5.318;2023-07-08T11:45:53;5.78;;;3.80;;
78778;SDS011;68121;52.404;5.318;2023-07-08T11:48:18;7.28;;;3.67;;
78778;SDS011;68121;52.404;5.318;2023-07-08T11:50:53;5.13;;;3.58;;
78778;SDS011;68121;52.404;5.318;2023-07-08T11:55:57;6.78;;;4.00;;
78778;SDS011;68121;52.404;5.318;2023-07-08T12:09:13;5.80;;;3.70;;
78778;SDS011;68121;52.404;5.318;2023-07-08T12:11:48;5.88;;;4.13;;
78778;SDS011;68121;52.404;5.318;2023-07-08T12:14:20;6.60;;;3.72;;
78778;SDS011;68121;52.404;5.318;2023-07-08T12:16:48;5.80;;;3.83;;
78778;SDS011;68121;52.404;5.318;2023-07-08T12:19:16;7.07;;;4.20;;
78778;SDS011;68121;52.404;5.318;2023-07-08T12:21:43;6.38;;;4.15;;
78778;SDS011;68121;52.404;5.318;2023-07-08T12:24:12;7.50;;;4.38;;
78778;SDS011;68121;52.404;5.318;2023-07-08T12:26:40;6.68;;;3.95;;
78778;SDS011;68121;52.404;5.318;2023-07-08T12:29:07;7.95;;;3.97;;
78778;SDS011;68121;52.404;5.318;2023-07-08T12:31:39;7.63;;;4.30;;
78778;SDS011;68121;52.404;5.318;2023-07-08T12:34:12;5.53;;;3.90;;
78778;SDS011;68121;52.404;5.318;2023-07-08T12:36:40;6.28;;;4.13;;
78778;SDS011;68121;52.404;5.318;2023-07-08T12:39:07;5.38;;;3.58;;
78778;SDS011;68121;52.404;5.318;2023-07-08T12:41:36;6.82;;;4.15;;
78778;SDS011;68121;52.404;5.318;2023-07-08T12:44:04;8.02;;;4.10;;
78778;SDS011;68121;52.404;5.318;2023-07-08T12:46:40;8.30;;;4.43;;
78778;SDS011;68121;52.404;5.318;2023-07-08T12:49:08;7.40;;;4.72;;
78778;SDS011;68121;52.404;5.318;2023-07-08T12:51:34;6.78;;;4.45;;
78778;SDS011;68121;52.404;5.318;2023-07-08T12:54:00;6.15;;;4.20;;
78778;SDS011;68121;52.404;5.318;2023-07-08T12:56:26;6.68;;;4.35;;
78778;SDS011;68121;52.404;5.318;2023-07-08T12:58:53;6.90;;;4.45;;
78778;SDS011;68121;52.404;5.318;2023-07-08T13:01:22;6.85;;;4.35;;
78778;SDS011;68121;52.404;5.318;2023-07-08T13:03:55;7.60;;;4.57;;
78778;SDS011;68121;52.404;5.318;2023-07-08T13:06:25;6.13;;;4.22;;
78778;SDS011;68121;52.404;5.318;2023-07-08T13:08:56;6.20;;;4.20;;
78778;SDS011;68121;52.404;5.318;2023-07-08T13:11:28;8.48;;;4.28;;
78778;SDS011;68121;52.404;5.318;2023-07-08T13:13:59;6.57;;;3.88;;
78778;SDS011;68121;52.404;5.318;2023-07-08T13:16:31;6.28;;;4.00;;
78778;SDS011;68121;52.404;5.318;2023-07-08T13:18:59;6.60;;;4.03;;
78778;SDS011;68121;52.404;5.318;2023-07-08T13:21:26;7.82;;;4.72;;
78778;SDS011;68121;52.404;5.318;2023-07-08T13:23:56;6.75;;;4.15;;
78778;SDS011;68121;52.404;5.318;2023-07-08T13:26:23;9.10;;;4.18;;
78778;SDS011;68121;52.404;5.318;2023-07-08T13:28:59;5.85;;;3.60;;
78778;SDS011;68121;52.404;5.318;2023-07-08T13:31:31;8.98;;;4.45;;
78778;SDS011;68121;52.404;5.318;2023-07-08T13:34:05;6.05;;;3.97;;
78778;SDS011;68121;52.404;5.318;2023-07-08T13:36:35;6.57;;;3.97;;
78778;SDS011;68121;52.404;5.318;2023-07-08T13:39:08;6.63;;;4.00;;
78778;SDS011;68121;52.404;5.318;2023-07-08T13:41:43;5.93;;;3.88;;
78778;SDS011;68121;52.404;5.318;2023-07-08T13:44:10;7.25;;;4.43;;
78778;SDS011;68121;52.404;5.318;2023-07-08T13:46:37;8.00;;;4.53;;
78778;SDS011;68121;52.404;5.318;2023-07-08T13:51:46;7.18;;;4.68;;
78778;SDS011;68121;52.404;5.318;2023-07-08T13:54:20;9.65;;;4.68;;
78778;SDS011;68121;52.404;5.318;2023-07-08T13:56:51;5.70;;;3.92;;
78778;SDS011;68121;52.404;5.318;2023-07-08T13:59:22;6.82;;;4.78;;
78778;SDS011;68121;52.404;5.318;2023-07-08T14:01:51;7.68;;;4.53;;
78778;SDS011;68121;52.404;5.318;2023-07-08T14:04:25;7.20;;;4.00;;
78778;SDS011;68121;52.404;5.318;2023-07-08T14:06:55;8.93;;;4.75;;
78778;SDS011;68121;52.404;5.318;2023-07-08T14:09:22;7.70;;;3.45;;
78778;SDS011;68121;52.404;5.318;2023-07-08T14:11:49;5.22;;;3.53;;
78778;SDS011;68121;52.404;5.318;2023-07-08T14:14:16;7.07;;;3.92;;
78778;SDS011;68121;52.404;5.318;2023-07-08T14:16:44;6.07;;;3.90;;
78778;SDS011;68121;52.404;5.318;2023-07-08T14:19:14;6.25;;;4.10;;
78778;SDS011;68121;52.404;5.318;2023-07-08T14:21:52;6.68;;;3.88;;
78778;SDS011;68121;52.404;5.318;2023-07-08T14:24:23;7.03;;;4.00;;
78778;SDS011;68121;52.404;5.318;2023-07-08T14:26:50;5.50;;;3.78;;
78778;SDS011;68121;52.404;5.318;2023-07-08T14:29:18;6.70;;;4.22;;
78778;SDS011;68121;52.404;5.318;2023-07-08T14:31:45;9.23;;;4.43;;
78778;SDS011;68121;52.404;5.318;2023-07-08T14:34:12;11.90;;;4.35;;
78778;SDS011;68121;52.404;5.318;2023-07-08T14:36:41;7.40;;;3.97;;
78778;SDS011;68121;52.404;5.318;2023-07-08T14:39:11;6.30;;;4.25;;
78778;SDS011;68121;52.404;5.318;2023-07-08T14:41:39;5.82;;;3.88;;
78778;SDS011;68121;52.404;5.318;2023-07-08T14:44:20;7.20;;;4.30;;
78778;SDS011;68121;52.404;5.318;2023-07-08T14:46:48;8.40;;;4.60;;
78778;SDS011;68121;52.404;5.318;2023-07-08T14:49:19;6.63;;;4.57;;
78778;SDS011;68121;52.404;5.318;2023-07-08T14:51:47;7.05;;;3.78;;
78778;SDS011;68121;52.404;5.318;2023-07-08T14:54:13;6.53;;;3.45;;
78778;SDS011;68121;52.404;5.318;2023-07-08T14:56:40;5.88;;;3.92;;
78778;SDS011;68121;52.404;5.318;2023-07-08T14:59:17;7.65;;;4.35;;
78778;SDS011;68121;52.404;5.318;2023-07-08T15:01:45;6.40;;;3.67;;
78778;SDS011;68121;52.404;5.318;2023-07-08T15:04:12;6.93;;;3.92;;
78778;SDS011;68121;52.404;5.318;2023-07-08T15:06:43;7.35;;;3.88;;
78778;SDS011;68121;52.404;5.318;2023-07-08T15:09:10;8.68;;;4.20;;
78778;SDS011;68121;52.404;5.318;2023-07-08T15:11:36;5.78;;;3.33;;
78778;SDS011;68121;52.404;5.318;2023-07-08T15:14:12;8.13;;;3.90;;
78778;SDS011;68121;52.404;5.318;2023-07-08T15:16:48;8.38;;;3.95;;
78778;SDS011;68121;52.404;5.318;2023-07-08T15:19:15;8.57;;;3.70;;
78778;SDS011;68121;52.404;5.318;2023-07-08T15:21:42;7.38;;;4.28;;
78778;SDS011;68121;52.404;5.318;2023-07-08T15:24:09;5.88;;;3.78;;
78778;SDS011;68121;52.404;5.318;2023-07-08T15:26:44;9.15;;;3.90;;
78778;SDS011;68121;52.404;5.318;2023-07-08T15:29:16;7.15;;;3.75;;
78778;SDS011;68121;52.404;5.318;2023-07-08T15:31:45;5.35;;;3.95;;
78778;SDS011;68121;52.404;5.318;2023-07-08T15:34:15;6.75;;;3.95;;
78778;SDS011;68121;52.404;5.318;2023-07-08T15:36:43;7.55;;;3.83;;
78778;SDS011;68121;52.404;5.318;2023-07-08T15:39:09;6.53;;;3.97;;
78778;SDS011;68121;52.404;5.318;2023-07-08T15:41:35;7.75;;;4.07;;
78778;SDS011;68121;52.404;5.318;2023-07-08T15:44:04;6.68;;;3.65;;
78778;SDS011;68121;52.404;5.318;2023-07-08T15:46:33;6.85;;;3.72;;
78778;SDS011;68121;52.404;5.318;2023-07-08T15:49:04;7.38;;;3.97;;
78778;SDS011;68121;52.404;5.318;2023-07-08T15:51:43;7.03;;;3.50;;
78778;SDS011;68121;52.404;5.318;2023-07-08T15:54:10;6.63;;;3.60;;
78778;SDS011;68121;52.404;5.318;2023-07-08T15:56:36;7.18;;;3.72;;
78778;SDS011;68121;52.404;5.318;2023-07-08T15:59:04;7.25;;;3.78;;
78778;SDS011;68121;52.404;5.318;2023-07-08T16:01:31;8.88;;;3.97;;
78778;SDS011;68121;52.404;5.318;2023-07-08T16:03:58;6.50;;;4.25;;
78778;SDS011;68121;52.404;5.318;2023-07-08T16:06:25;7.25;;;4.07;;